Terminal Aerodrome Forecast
Issued by NWS Twin Cities, MN

Home | Current Version | Previous Version | Text Only | Print | Product List | Glossary Off
Versions: 1 2 3 4 5 6 7 8 9 10 11 12 13 14 15 16 17 18 19 20

000
FTUS43 KMPX 261700 RRA
TAFEAU
TAF
KEAU 261739Z 2618/2718 01004KT P6SM OVC012
     FM270300 36006KT 4SM -SN BR SCT009 OVC015
     FM270500 36006KT 1SM -SN BR VV007
     FM271200 34008KT 2SM -SN BR BKN009
     FM271500 32007KT 5SM -SN BR OVC014=

USA.gov is the U.S. government's official web portal to all federal, state and local government web resources and services.